sensor_id;sensor_type;location;lat;lon;timestamp;P1;durP1;ratioP1;P2;durP2;ratioP2
43990;SDS011;29654;50.784;20.604;2022-07-06T00:02:44;2.72;;;2.33;;
43990;SDS011;29654;50.784;20.604;2022-07-06T00:07:47;2.50;;;2.30;;
43990;SDS011;29654;50.784;20.604;2022-07-06T00:12:50;2.42;;;2.22;;
43990;SDS011;29654;50.784;20.604;2022-07-06T00:17:54;2.28;;;2.13;;
43990;SDS011;29654;50.784;20.604;2022-07-06T00:22:58;2.17;;;2.08;;
43990;SDS011;29654;50.784;20.604;2022-07-06T00:28:01;2.10;;;1.95;;
43990;SDS011;29654;50.784;20.604;2022-07-06T00:33:05;2.30;;;2.10;;
43990;SDS011;29654;50.784;20.604;2022-07-06T00:38:08;2.15;;;2.05;;
43990;SDS011;29654;50.784;20.604;2022-07-06T00:43:12;1.98;;;1.88;;
43990;SDS011;29654;50.784;20.604;2022-07-06T00:48:16;1.92;;;1.83;;
43990;SDS011;29654;50.784;20.604;2022-07-06T00:53:19;1.90;;;1.80;;
43990;SDS011;29654;50.784;20.604;2022-07-06T00:58:23;2.80;;;1.90;;
43990;SDS011;29654;50.784;20.604;2022-07-06T01:03:27;1.67;;;1.58;;
43990;SDS011;29654;50.784;20.604;2022-07-06T01:08:31;1.85;;;1.75;;
43990;SDS011;29654;50.784;20.604;2022-07-06T01:13:34;1.58;;;1.48;;
43990;SDS011;29654;50.784;20.604;2022-07-06T01:18:39;1.40;;;1.30;;
43990;SDS011;29654;50.784;20.604;2022-07-06T01:23:46;1.23;;;1.23;;
43990;SDS011;29654;50.784;20.604;2022-07-06T01:28:49;1.50;;;1.40;;
43990;SDS011;29654;50.784;20.604;2022-07-06T01:33:54;1.55;;;1.23;;
43990;SDS011;29654;50.784;20.604;2022-07-06T01:39:00;1.25;;;1.10;;
43990;SDS011;29654;50.784;20.604;2022-07-06T01:44:04;0.95;;;0.95;;
43990;SDS011;29654;50.784;20.604;2022-07-06T01:49:07;0.90;;;0.90;;
43990;SDS011;29654;50.784;20.604;2022-07-06T01:54:12;1.42;;;1.20;;
43990;SDS011;29654;50.784;20.604;2022-07-06T01:59:16;0.80;;;0.80;;
43990;SDS011;29654;50.784;20.604;2022-07-06T02:04:19;1.10;;;1.10;;
43990;SDS011;29654;50.784;20.604;2022-07-06T02:09:24;1.05;;;1.05;;
43990;SDS011;29654;50.784;20.604;2022-07-06T02:14:28;0.98;;;0.90;;
43990;SDS011;29654;50.784;20.604;2022-07-06T02:19:32;0.95;;;0.95;;
43990;SDS011;29654;50.784;20.604;2022-07-06T02:24:37;0.80;;;0.80;;
43990;SDS011;29654;50.784;20.604;2022-07-06T02:29:40;0.88;;;0.88;;
43990;SDS011;29654;50.784;20.604;2022-07-06T02:34:43;1.08;;;1.08;;
43990;SDS011;29654;50.784;20.604;2022-07-06T02:39:48;1.00;;;1.00;;
43990;SDS011;29654;50.784;20.604;2022-07-06T02:44:52;0.95;;;0.95;;
43990;SDS011;29654;50.784;20.604;2022-07-06T02:49:55;1.15;;;1.05;;
43990;SDS011;29654;50.784;20.604;2022-07-06T02:55:00;1.55;;;1.00;;
43990;SDS011;29654;50.784;20.604;2022-07-06T03:00:04;1.10;;;1.10;;
43990;SDS011;29654;50.784;20.604;2022-07-06T03:05:11;1.35;;;1.00;;
43990;SDS011;29654;50.784;20.604;2022-07-06T03:10:16;1.38;;;1.20;;
43990;SDS011;29654;50.784;20.604;2022-07-06T03:15:19;1.17;;;1.10;;
43990;SDS011;29654;50.784;20.604;2022-07-06T03:20:22;1.08;;;0.98;;
43990;SDS011;29654;50.784;20.604;2022-07-06T03:25:27;1.00;;;1.00;;
43990;SDS011;29654;50.784;20.604;2022-07-06T03:30:31;1.10;;;1.00;;
43990;SDS011;29654;50.784;20.604;2022-07-06T03:35:34;1.63;;;1.52;;
43990;SDS011;29654;50.784;20.604;2022-07-06T03:40:41;1.80;;;1.70;;
43990;SDS011;29654;50.784;20.604;2022-07-06T03:45:45;1.70;;;1.60;;
43990;SDS011;29654;50.784;20.604;2022-07-06T03:50:49;1.55;;;1.42;;
43990;SDS011;29654;50.784;20.604;2022-07-06T03:55:54;1.50;;;1.42;;
43990;SDS011;29654;50.784;20.604;2022-07-06T04:01:15;1.45;;;1.35;;
43990;SDS011;29654;50.784;20.604;2022-07-06T04:06:18;1.63;;;1.52;;
43990;SDS011;29654;50.784;20.604;2022-07-06T04:11:22;1.60;;;1.50;;
43990;SDS011;29654;50.784;20.604;2022-07-06T04:16:26;1.70;;;1.60;;
43990;SDS011;29654;50.784;20.604;2022-07-06T04:21:31;1.65;;;1.55;;
43990;SDS011;29654;50.784;20.604;2022-07-06T04:26:36;1.65;;;1.55;;
43990;SDS011;29654;50.784;20.604;2022-07-06T04:31:39;2.03;;;1.77;;
43990;SDS011;29654;50.784;20.604;2022-07-06T04:36:44;1.73;;;1.63;;
43990;SDS011;29654;50.784;20.604;2022-07-06T04:41:49;1.60;;;1.50;;
43990;SDS011;29654;50.784;20.604;2022-07-06T04:46:53;2.15;;;2.05;;
43990;SDS011;29654;50.784;20.604;2022-07-06T04:51:57;1.85;;;1.75;;
43990;SDS011;29654;50.784;20.604;2022-07-06T04:57:03;1.77;;;1.67;;
43990;SDS011;29654;50.784;20.604;2022-07-06T05:02:07;1.83;;;1.73;;
43990;SDS011;29654;50.784;20.604;2022-07-06T05:07:10;2.13;;;1.73;;
43990;SDS011;29654;50.784;20.604;2022-07-06T05:12:15;1.70;;;1.58;;
43990;SDS011;29654;50.784;20.604;2022-07-06T05:17:18;1.73;;;1.60;;
43990;SDS011;29654;50.784;20.604;2022-07-06T05:22:21;1.88;;;1.77;;
43990;SDS011;29654;50.784;20.604;2022-07-06T05:27:27;1.77;;;1.67;;
43990;SDS011;29654;50.784;20.604;2022-07-06T05:32:30;1.67;;;1.58;;
43990;SDS011;29654;50.784;20.604;2022-07-06T05:37:34;1.75;;;1.63;;
43990;SDS011;29654;50.784;20.604;2022-07-06T05:42:38;2.22;;;1.83;;
43990;SDS011;29654;50.784;20.604;2022-07-06T05:47:42;1.90;;;1.70;;
43990;SDS011;29654;50.784;20.604;2022-07-06T05:53:04;2.22;;;1.75;;
43990;SDS011;29654;50.784;20.604;2022-07-06T05:58:10;1.63;;;1.52;;
43990;SDS011;29654;50.784;20.604;2022-07-06T06:03:14;2.55;;;1.60;;
43990;SDS011;29654;50.784;20.604;2022-07-06T06:08:17;1.83;;;1.73;;
43990;SDS011;29654;50.784;20.604;2022-07-06T06:13:23;1.70;;;1.60;;
43990;SDS011;29654;50.784;20.604;2022-07-06T06:18:28;2.15;;;2.05;;
43990;SDS011;29654;50.784;20.604;2022-07-06T06:23:31;2.05;;;1.88;;
43990;SDS011;29654;50.784;20.604;2022-07-06T06:28:36;2.88;;;2.15;;
43990;SDS011;29654;50.784;20.604;2022-07-06T06:33:39;2.00;;;1.90;;
43990;SDS011;29654;50.784;20.604;2022-07-06T06:38:41;2.63;;;2.25;;
43990;SDS011;29654;50.784;20.604;2022-07-06T06:43:46;2.05;;;1.95;;
43990;SDS011;29654;50.784;20.604;2022-07-06T06:48:52;2.63;;;1.88;;
43990;SDS011;29654;50.784;20.604;2022-07-06T06:53:56;2.10;;;1.90;;
43990;SDS011;29654;50.784;20.604;2022-07-06T06:59:00;1.83;;;1.73;;
43990;SDS011;29654;50.784;20.604;2022-07-06T07:04:04;1.83;;;1.73;;
43990;SDS011;29654;50.784;20.604;2022-07-06T07:09:07;1.65;;;1.55;;
43990;SDS011;29654;50.784;20.604;2022-07-06T07:14:12;1.75;;;1.65;;
43990;SDS011;29654;50.784;20.604;2022-07-06T07:19:14;2.00;;;1.90;;
43990;SDS011;29654;50.784;20.604;2022-07-06T07:24:17;1.85;;;1.73;;
43990;SDS011;29654;50.784;20.604;2022-07-06T07:29:21;2.38;;;1.80;;
43990;SDS011;29654;50.784;20.604;2022-07-06T07:34:24;2.15;;;1.90;;
43990;SDS011;29654;50.784;20.604;2022-07-06T07:39:27;1.75;;;1.65;;
43990;SDS011;29654;50.784;20.604;2022-07-06T07:44:32;2.28;;;2.10;;
43990;SDS011;29654;50.784;20.604;2022-07-06T07:49:34;2.38;;;2.20;;
43990;SDS011;29654;50.784;20.604;2022-07-06T07:54:37;2.75;;;2.20;;
43990;SDS011;29654;50.784;20.604;2022-07-06T07:59:42;2.72;;;2.58;;
43990;SDS011;29654;50.784;20.604;2022-07-06T08:04:45;3.95;;;2.70;;
43990;SDS011;29654;50.784;20.604;2022-07-06T08:09:48;2.78;;;2.42;;
43990;SDS011;29654;50.784;20.604;2022-07-06T08:14:52;3.15;;;2.95;;
43990;SDS011;29654;50.784;20.604;2022-07-06T08:19:56;2.70;;;2.50;;
43990;SDS011;29654;50.784;20.604;2022-07-06T08:24:59;2.67;;;2.47;;
43990;SDS011;29654;50.784;20.604;2022-07-06T08:30:04;2.78;;;2.58;;
43990;SDS011;29654;50.784;20.604;2022-07-06T08:35:08;2.33;;;2.22;;
43990;SDS011;29654;50.784;20.604;2022-07-06T08:40:12;2.90;;;2.30;;
43990;SDS011;29654;50.784;20.604;2022-07-06T08:45:16;2.60;;;2.40;;
43990;SDS011;29654;50.784;20.604;2022-07-06T08:50:19;2.65;;;2.45;;
43990;SDS011;29654;50.784;20.604;2022-07-06T08:55:23;3.15;;;2.90;;
43990;SDS011;29654;50.784;20.604;2022-07-06T09:00:28;2.65;;;2.45;;
43990;SDS011;29654;50.784;20.604;2022-07-06T09:05:34;2.60;;;2.40;;
43990;SDS011;29654;50.784;20.604;2022-07-06T09:10:37;2.80;;;2.55;;
43990;SDS011;29654;50.784;20.604;2022-07-06T09:15:42;2.40;;;2.10;;
43990;SDS011;29654;50.784;20.604;2022-07-06T09:20:46;2.17;;;2.08;;
43990;SDS011;29654;50.784;20.604;2022-07-06T09:25:49;2.20;;;2.10;;
43990;SDS011;29654;50.784;20.604;2022-07-06T09:30:55;1.95;;;1.85;;
43990;SDS011;29654;50.784;20.604;2022-07-06T09:36:08;2.20;;;2.00;;
43990;SDS011;29654;50.784;20.604;2022-07-06T09:41:11;2.13;;;2.00;;
43990;SDS011;29654;50.784;20.604;2022-07-06T09:46:15;2.33;;;2.15;;
43990;SDS011;29654;50.784;20.604;2022-07-06T09:51:20;2.00;;;1.90;;
43990;SDS011;29654;50.784;20.604;2022-07-06T09:56:24;2.17;;;2.00;;
43990;SDS011;29654;50.784;20.604;2022-07-06T10:01:40;2.05;;;1.95;;
43990;SDS011;29654;50.784;20.604;2022-07-06T10:06:44;2.72;;;2.10;;
43990;SDS011;29654;50.784;20.604;2022-07-06T10:11:49;2.50;;;2.03;;
43990;SDS011;29654;50.784;20.604;2022-07-06T10:16:55;2.13;;;2.03;;
43990;SDS011;29654;50.784;20.604;2022-07-06T10:22:00;3.33;;;2.15;;
43990;SDS011;29654;50.784;20.604;2022-07-06T10:27:05;2.80;;;1.77;;
43990;SDS011;29654;50.784;20.604;2022-07-06T10:32:12;2.30;;;2.10;;
43990;SDS011;29654;50.784;20.604;2022-07-06T10:37:21;2.15;;;1.98;;
43990;SDS011;29654;50.784;20.604;2022-07-06T10:42:39;4.97;;;4.57;;
43990;SDS011;29654;50.784;20.604;2022-07-06T10:47:45;2.55;;;2.10;;
43990;SDS011;29654;50.784;20.604;2022-07-06T10:52:48;2.17;;;1.80;;
43990;SDS011;29654;50.784;20.604;2022-07-06T10:57:59;3.50;;;1.98;;
43990;SDS011;29654;50.784;20.604;2022-07-06T11:03:17;1.65;;;1.55;;
43990;SDS011;29654;50.784;20.604;2022-07-06T11:14:01;2.63;;;2.53;;
43990;SDS011;29654;50.784;20.604;2022-07-06T11:19:09;3.25;;;2.95;;
43990;SDS011;29654;50.784;20.604;2022-07-06T11:24:14;3.10;;;2.90;;
43990;SDS011;29654;50.784;20.604;2022-07-06T11:29:21;3.67;;;3.30;;
43990;SDS011;29654;50.784;20.604;2022-07-06T11:34:28;3.40;;;3.10;;
43990;SDS011;29654;50.784;20.604;2022-07-06T11:39:33;3.25;;;3.05;;
43990;SDS011;29654;50.784;20.604;2022-07-06T11:44:37;4.25;;;3.15;;
43990;SDS011;29654;50.784;20.604;2022-07-06T11:49:43;3.15;;;2.88;;
43990;SDS011;29654;50.784;20.604;2022-07-06T11:54:56;2.80;;;2.42;;
43990;SDS011;29654;50.784;20.604;2022-07-06T12:00:00;2.97;;;2.65;;
43990;SDS011;29654;50.784;20.604;2022-07-06T12:05:14;3.08;;;2.88;;
43990;SDS011;29654;50.784;20.604;2022-07-06T12:10:32;3.95;;;3.40;;
43990;SDS011;29654;50.784;20.604;2022-07-06T12:15:36;6.43;;;3.97;;
43990;SDS011;29654;50.784;20.604;2022-07-06T12:20:40;4.43;;;4.07;;
43990;SDS011;29654;50.784;20.604;2022-07-06T12:25:43;5.18;;;4.20;;
43990;SDS011;29654;50.784;20.604;2022-07-06T12:30:46;4.60;;;4.32;;
43990;SDS011;29654;50.784;20.604;2022-07-06T12:35:50;4.85;;;4.45;;
43990;SDS011;29654;50.784;20.604;2022-07-06T12:40:53;5.60;;;5.10;;
43990;SDS011;29654;50.784;20.604;2022-07-06T12:45:56;5.30;;;4.88;;
43990;SDS011;29654;50.784;20.604;2022-07-06T12:51:00;5.10;;;4.60;;
43990;SDS011;29654;50.784;20.604;2022-07-06T12:56:09;4.82;;;4.40;;
43990;SDS011;29654;50.784;20.604;2022-07-06T13:01:14;6.35;;;5.85;;
43990;SDS011;29654;50.784;20.604;2022-07-06T13:06:27;6.20;;;5.70;;
43990;SDS011;29654;50.784;20.604;2022-07-06T13:11:34;5.80;;;5.40;;
43990;SDS011;29654;50.784;20.604;2022-07-06T13:16:37;6.95;;;6.20;;
43990;SDS011;29654;50.784;20.604;2022-07-06T13:21:42;6.53;;;6.03;;
43990;SDS011;29654;50.784;20.604;2022-07-06T13:26:46;7.55;;;6.75;;
43990;SDS011;29654;50.784;20.604;2022-07-06T13:31:49;6.93;;;6.28;;
43990;SDS011;29654;50.784;20.604;2022-07-06T13:36:53;6.22;;;5.68;;
43990;SDS011;29654;50.784;20.604;2022-07-06T13:41:56;7.05;;;6.50;;
43990;SDS011;29654;50.784;20.604;2022-07-06T13:46:59;5.07;;;4.78;;
43990;SDS011;29654;50.784;20.604;2022-07-06T13:52:04;5.20;;;4.80;;
43990;SDS011;29654;50.784;20.604;2022-07-06T13:57:08;5.50;;;5.00;;
43990;SDS011;29654;50.784;20.604;2022-07-06T14:02:11;5.03;;;4.70;;
43990;SDS011;29654;50.784;20.604;2022-07-06T14:07:15;6.65;;;6.05;;
43990;SDS011;29654;50.784;20.604;2022-07-06T14:12:18;6.53;;;5.20;;
43990;SDS011;29654;50.784;20.604;2022-07-06T14:17:24;4.70;;;4.15;;
43990;SDS011;29654;50.784;20.604;2022-07-06T14:22:29;5.50;;;3.90;;
43990;SDS011;29654;50.784;20.604;2022-07-06T14:27:32;4.00;;;3.65;;
43990;SDS011;29654;50.784;20.604;2022-07-06T14:32:36;4.25;;;3.83;;
43990;SDS011;29654;50.784;20.604;2022-07-06T14:37:40;4.05;;;3.72;;
43990;SDS011;29654;50.784;20.604;2022-07-06T14:42:43;3.95;;;3.60;;
43990;SDS011;29654;50.784;20.604;2022-07-06T14:47:46;3.55;;;3.10;;
43990;SDS011;29654;50.784;20.604;2022-07-06T14:52:51;3.10;;;2.83;;
43990;SDS011;29654;50.784;20.604;2022-07-06T14:57:54;2.85;;;2.40;;
43990;SDS011;29654;50.784;20.604;2022-07-06T15:02:57;3.00;;;2.75;;
43990;SDS011;29654;50.784;20.604;2022-07-06T15:08:01;2.90;;;2.17;;
43990;SDS011;29654;50.784;20.604;2022-07-06T15:13:05;2.20;;;2.00;;
43990;SDS011;29654;50.784;20.604;2022-07-06T15:18:08;2.03;;;1.80;;
43990;SDS011;29654;50.784;20.604;2022-07-06T15:23:12;2.13;;;1.70;;
43990;SDS011;29654;50.784;20.604;2022-07-06T15:28:15;1.55;;;1.40;;
43990;SDS011;29654;50.784;20.604;2022-07-06T15:33:20;2.05;;;1.10;;
43990;SDS011;29654;50.784;20.604;2022-07-06T15:38:24;2.45;;;1.10;;
43990;SDS011;29654;50.784;20.604;2022-07-06T15:43:31;1.60;;;1.10;;
43990;SDS011;29654;50.784;20.604;2022-07-06T15:48:35;2.05;;;1.23;;
43990;SDS011;29654;50.784;20.604;2022-07-06T15:53:40;2.42;;;1.73;;
43990;SDS011;29654;50.784;20.604;2022-07-06T15:58:45;1.55;;;1.45;;
43990;SDS011;29654;50.784;20.604;2022-07-06T16:03:48;1.80;;;1.27;;
43990;SDS011;29654;50.784;20.604;2022-07-06T16:08:53;2.75;;;1.58;;
43990;SDS011;29654;50.784;20.604;2022-07-06T16:13:56;2.00;;;1.77;;
43990;SDS011;29654;50.784;20.604;2022-07-06T16:18:59;1.52;;;1.30;;
43990;SDS011;29654;50.784;20.604;2022-07-06T16:24:03;2.50;;;1.23;;
43990;SDS011;29654;50.784;20.604;2022-07-06T16:29:07;1.80;;;1.30;;
43990;SDS011;29654;50.784;20.604;2022-07-06T16:34:10;1.38;;;1.17;;
43990;SDS011;29654;50.784;20.604;2022-07-06T16:39:14;1.40;;;1.33;;
43990;SDS011;29654;50.784;20.604;2022-07-06T16:44:17;1.40;;;1.30;;
43990;SDS011;29654;50.784;20.604;2022-07-06T16:49:20;1.90;;;1.20;;
43990;SDS011;29654;50.784;20.604;2022-07-06T16:54:24;3.10;;;1.77;;
43990;SDS011;29654;50.784;20.604;2022-07-06T16:59:27;3.70;;;2.10;;
43990;SDS011;29654;50.784;20.604;2022-07-06T17:04:30;2.20;;;2.00;;
43990;SDS011;29654;50.784;20.604;2022-07-06T17:09:34;6.55;;;1.83;;
43990;SDS011;29654;50.784;20.604;2022-07-06T17:14:37;2.83;;;1.90;;
43990;SDS011;29654;50.784;20.604;2022-07-06T17:19:40;3.05;;;1.70;;
43990;SDS011;29654;50.784;20.604;2022-07-06T17:24:45;1.85;;;1.38;;
43990;SDS011;29654;50.784;20.604;2022-07-06T17:29:48;1.70;;;1.60;;
43990;SDS011;29654;50.784;20.604;2022-07-06T17:34:51;2.80;;;1.42;;
43990;SDS011;29654;50.784;20.604;2022-07-06T17:39:55;1.48;;;1.20;;
43990;SDS011;29654;50.784;20.604;2022-07-06T17:44:58;1.95;;;1.55;;
43990;SDS011;29654;50.784;20.604;2022-07-06T17:50:01;3.38;;;1.15;;
43990;SDS011;29654;50.784;20.604;2022-07-06T17:55:06;1.70;;;1.38;;
43990;SDS011;29654;50.784;20.604;2022-07-06T18:00:11;1.55;;;1.33;;
43990;SDS011;29654;50.784;20.604;2022-07-06T18:05:15;2.17;;;1.40;;
43990;SDS011;29654;50.784;20.604;2022-07-06T18:10:21;1.95;;;1.40;;
43990;SDS011;29654;50.784;20.604;2022-07-06T18:15:24;3.33;;;1.55;;
43990;SDS011;29654;50.784;20.604;2022-07-06T18:20:27;2.60;;;2.25;;
43990;SDS011;29654;50.784;20.604;2022-07-06T18:25:32;2.20;;;2.00;;
43990;SDS011;29654;50.784;20.604;2022-07-06T18:30:35;3.70;;;2.22;;
43990;SDS011;29654;50.784;20.604;2022-07-06T18:35:38;2.42;;;1.65;;
43990;SDS011;29654;50.784;20.604;2022-07-06T18:40:42;3.95;;;2.10;;
43990;SDS011;29654;50.784;20.604;2022-07-06T18:45:45;4.35;;;2.63;;
43990;SDS011;29654;50.784;20.604;2022-07-06T18:50:48;7.05;;;2.45;;
43990;SDS011;29654;50.784;20.604;2022-07-06T18:55:53;3.42;;;1.85;;
43990;SDS011;29654;50.784;20.604;2022-07-06T19:00:56;4.30;;;2.00;;
43990;SDS011;29654;50.784;20.604;2022-07-06T19:05:59;5.65;;;1.92;;
43990;SDS011;29654;50.784;20.604;2022-07-06T19:11:04;5.63;;;1.95;;
43990;SDS011;29654;50.784;20.604;2022-07-06T19:16:07;5.63;;;2.47;;
43990;SDS011;29654;50.784;20.604;2022-07-06T19:21:11;2.28;;;1.88;;
43990;SDS011;29654;50.784;20.604;2022-07-06T19:26:16;2.97;;;1.98;;
43990;SDS011;29654;50.784;20.604;2022-07-06T19:31:19;3.85;;;2.33;;
43990;SDS011;29654;50.784;20.604;2022-07-06T19:36:22;8.00;;;2.85;;
43990;SDS011;29654;50.784;20.604;2022-07-06T19:41:26;5.10;;;2.92;;
43990;SDS011;29654;50.784;20.604;2022-07-06T19:46:30;7.15;;;2.90;;
43990;SDS011;29654;50.784;20.604;2022-07-06T19:51:33;4.15;;;2.55;;
43990;SDS011;29654;50.784;20.604;2022-07-06T19:56:37;3.38;;;2.45;;
43990;SDS011;29654;50.784;20.604;2022-07-06T20:01:41;4.50;;;2.20;;
43990;SDS011;29654;50.784;20.604;2022-07-06T20:06:45;2.92;;;2.20;;
43990;SDS011;29654;50.784;20.604;2022-07-06T20:11:49;5.10;;;2.70;;
43990;SDS011;29654;50.784;20.604;2022-07-06T20:16:52;2.50;;;2.30;;
43990;SDS011;29654;50.784;20.604;2022-07-06T20:21:55;5.10;;;2.75;;
43990;SDS011;29654;50.784;20.604;2022-07-06T20:26:59;4.53;;;3.00;;
43990;SDS011;29654;50.784;20.604;2022-07-06T20:32:02;6.78;;;2.60;;
43990;SDS011;29654;50.784;20.604;2022-07-06T20:37:06;3.55;;;2.40;;
43990;SDS011;29654;50.784;20.604;2022-07-06T20:42:11;5.93;;;3.22;;
43990;SDS011;29654;50.784;20.604;2022-07-06T20:47:14;7.80;;;2.88;;
43990;SDS011;29654;50.784;20.604;2022-07-06T20:52:17;3.25;;;2.83;;
43990;SDS011;29654;50.784;20.604;2022-07-06T20:57:21;5.30;;;3.45;;
43990;SDS011;29654;50.784;20.604;2022-07-06T21:02:24;5.90;;;2.97;;
43990;SDS011;29654;50.784;20.604;2022-07-06T21:07:27;6.13;;;3.03;;
43990;SDS011;29654;50.784;20.604;2022-07-06T21:12:32;6.07;;;3.35;;
43990;SDS011;29654;50.784;20.604;2022-07-06T21:17:35;7.13;;;3.50;;
43990;SDS011;29654;50.784;20.604;2022-07-06T21:22:37;8.13;;;3.80;;
43990;SDS011;29654;50.784;20.604;2022-07-06T21:27:42;7.78;;;3.80;;
43990;SDS011;29654;50.784;20.604;2022-07-06T21:32:45;6.22;;;3.53;;
43990;SDS011;29654;50.784;20.604;2022-07-06T21:37:47;4.57;;;3.50;;
43990;SDS011;29654;50.784;20.604;2022-07-06T21:42:52;7.20;;;3.30;;
43990;SDS011;29654;50.784;20.604;2022-07-06T21:47:55;4.88;;;3.40;;
43990;SDS011;29654;50.784;20.604;2022-07-06T21:52:58;6.13;;;3.13;;
43990;SDS011;29654;50.784;20.604;2022-07-06T21:58:02;7.30;;;3.00;;
43990;SDS011;29654;50.784;20.604;2022-07-06T22:03:05;4.97;;;3.25;;
43990;SDS011;29654;50.784;20.604;2022-07-06T22:08:08;5.13;;;3.30;;
43990;SDS011;29654;50.784;20.604;2022-07-06T22:13:13;3.47;;;2.92;;
43990;SDS011;29654;50.784;20.604;2022-07-06T22:18:29;4.35;;;2.90;;
43990;SDS011;29654;50.784;20.604;2022-07-06T22:23:32;4.22;;;2.97;;
43990;SDS011;29654;50.784;20.604;2022-07-06T22:28:39;4.95;;;3.15;;
43990;SDS011;29654;50.784;20.604;2022-07-06T22:33:42;4.80;;;2.60;;
43990;SDS011;29654;50.784;20.604;2022-07-06T22:38:45;6.93;;;3.00;;
43990;SDS011;29654;50.784;20.604;2022-07-06T22:43:50;4.30;;;2.55;;
43990;SDS011;29654;50.784;20.604;2022-07-06T22:48:53;2.92;;;2.63;;
43990;SDS011;29654;50.784;20.604;2022-07-06T22:53:57;3.80;;;2.42;;
43990;SDS011;29654;50.784;20.604;2022-07-06T22:59:01;4.35;;;3.20;;
43990;SDS011;29654;50.784;20.604;2022-07-06T23:04:05;5.55;;;2.85;;
43990;SDS011;29654;50.784;20.604;2022-07-06T23:09:08;4.35;;;2.13;;
43990;SDS011;29654;50.784;20.604;2022-07-06T23:14:12;3.63;;;2.35;;
43990;SDS011;29654;50.784;20.604;2022-07-06T23:19:15;4.32;;;3.25;;
43990;SDS011;29654;50.784;20.604;2022-07-06T23:24:18;7.30;;;4.35;;
43990;SDS011;29654;50.784;20.604;2022-07-06T23:29:22;8.60;;;4.72;;
43990;SDS011;29654;50.784;20.604;2022-07-06T23:34:26;7.03;;;4.93;;
43990;SDS011;29654;50.784;20.604;2022-07-06T23:39:29;5.32;;;4.28;;
43990;SDS011;29654;50.784;20.604;2022-07-06T23:44:33;4.47;;;4.05;;
43990;SDS011;29654;50.784;20.604;2022-07-06T23:49:36;4.40;;;3.25;;
43990;SDS011;29654;50.784;20.604;2022-07-06T23:54:39;5.63;;;3.10;;
43990;SDS011;29654;50.784;20.604;2022-07-06T23:59:44;3.15;;;2.88;;
